Time;durP1;ratioP1;P1;durP2;ratioP2;P2;SDS_P1;SDS_P2;PMS_P1;PMS_P2;Temp;Humidity;BMP_temperature;BMP_pressure;BME280_temperature;BME280_humidity;BME280_pressure;Samples;Min_cycle;Max_cycle;Signal;HPM_P1;HPM_P2
2020/12/06 00:01:50;;;;;;;28.90;21.40;;;;;;;;;;5059807;28;20462;-86
2020/12/06 00:04:35;;;;;;;34.33;23.95;;;;;;;;;;5063558;28;20395;-85
2020/12/06 00:07:20;;;;;;;35.70;23.25;;;;;;;;;;5062129;28;20037;-87
2020/12/06 00:10:17;;;;;;;30.02;21.23;;;;;;;;;;5054937;28;20044;-86
2020/12/06 00:13:03;;;;;;;34.35;22.50;;;;;;;;;;5042163;28;20480;-82
2020/12/06 00:15:48;;;;;;;37.45;24.98;;;;;;;;;;5050778;28;20071;-80
2020/12/06 00:18:36;;;;;;;35.22;23.55;;;;;;;;;;5066158;28;20060;-83
2020/12/06 00:21:22;;;;;;;36.65;25.00;;;;;;;;;;5061540;28;20036;-83
2020/12/06 00:24:07;;;;;;;34.38;22.55;;;;;;;;;;5053330;28;20021;-84
2020/12/06 00:26:56;;;;;;;29.55;21.52;;;;;;;;;;5058708;28;20028;-84
2020/12/06 00:29:41;;;;;;;35.80;24.60;;;;;;;;;;5072810;28;20028;-85
2020/12/06 00:32:26;;;;;;;28.63;20.88;;;;;;;;;;5068473;28;20041;-85
2020/12/06 00:35:12;;;;;;;27.83;19.73;;;;;;;;;;5032184;28;20036;-87
2020/12/06 00:37:57;;;;;;;32.72;22.90;;;;;;;;;;5043340;28;20021;-86
2020/12/06 00:40:42;;;;;;;29.45;20.17;;;;;;;;;;5040604;28;20048;-85
2020/12/06 00:43:27;;;;;;;31.00;21.58;;;;;;;;;;5045619;28;20448;-85
2020/12/06 00:46:18;;;;;;;36.33;23.95;;;;;;;;;;5033265;28;20112;-82
2020/12/06 00:49:03;;;;;;;34.17;24.00;;;;;;;;;;5042893;28;20031;-84
2020/12/06 00:51:49;;;;;;;31.17;21.80;;;;;;;;;;5040300;28;20038;-83
2020/12/06 00:54:34;;;;;;;32.50;21.23;;;;;;;;;;5040390;28;20082;-82
2020/12/06 00:57:20;;;;;;;35.70;24.38;;;;;;;;;;5041608;28;20493;-86
2020/12/06 01:00:12;;;;;;;34.72;22.50;;;;;;;;;;5043298;28;20028;-84
2020/12/06 01:02:57;;;;;;;32.78;22.55;;;;;;;;;;5042604;28;20109;-80
2020/12/06 01:05:43;;;;;;;35.00;23.27;;;;;;;;;;5039957;28;20031;-81
2020/12/06 01:08:28;;;;;;;32.00;22.10;;;;;;;;;;5045057;28;20029;-81
2020/12/06 01:11:14;;;;;;;33.67;22.48;;;;;;;;;;5041811;28;20519;-82
2020/12/06 01:14:00;;;;;;;30.42;20.48;;;;;;;;;;5044051;28;20040;-82
2020/12/06 01:16:48;;;;;;;31.15;21.23;;;;;;;;;;5049461;28;20032;-83
2020/12/06 01:19:34;;;;;;;28.50;19.48;;;;;;;;;;5046900;28;20020;-79
2020/12/06 01:22:19;;;;;;;26.70;19.83;;;;;;;;;;5042166;28;20103;-79
2020/12/06 01:25:05;;;;;;;28.95;19.40;;;;;;;;;;5043960;28;20027;-79
2020/12/06 01:27:50;;;;;;;29.88;20.92;;;;;;;;;;5044872;28;20383;-79
2020/12/06 01:30:35;;;;;;;37.10;25.00;;;;;;;;;;5040701;28;20032;-80
2020/12/06 01:33:20;;;;;;;33.28;22.98;;;;;;;;;;5049504;28;20051;-80
2020/12/06 01:36:06;;;;;;;24.73;17.88;;;;;;;;;;5057173;28;20025;-80
2020/12/06 01:38:51;;;;;;;30.42;20.08;;;;;;;;;;5047793;28;20814;-81
2020/12/06 01:41:36;;;;;;;30.10;20.10;;;;;;;;;;5065247;28;20024;-80
2020/12/06 01:44:28;;;;;;;32.58;22.02;;;;;;;;;;5068068;28;20024;-81
2020/12/06 01:47:14;;;;;;;23.15;16.63;;;;;;;;;;5060445;28;20055;-81
2020/12/06 01:49:59;;;;;;;30.02;20.02;;;;;;;;;;5062355;28;20389;-81
2020/12/06 01:52:46;;;;;;;32.83;22.42;;;;;;;;;;5065939;28;20103;-80
2020/12/06 01:55:31;;;;;;;28.88;19.90;;;;;;;;;;5059859;28;20063;-81
2020/12/06 01:58:17;;;;;;;33.35;22.15;;;;;;;;;;5065034;28;20082;-81
2020/12/06 02:01:02;;;;;;;34.47;23.50;;;;;;;;;;5058598;28;20609;-79
2020/12/06 02:03:51;;;;;;;36.05;25.48;;;;;;;;;;5062110;28;20022;-81
2020/12/06 02:06:36;;;;;;;32.97;22.25;;;;;;;;;;5059488;28;20053;-81
2020/12/06 02:09:22;;;;;;;33.95;24.27;;;;;;;;;;5056700;28;20052;-81
2020/12/06 02:12:07;;;;;;;30.58;21.77;;;;;;;;;;5061545;28;20115;-80
2020/12/06 02:14:52;;;;;;;36.35;24.20;;;;;;;;;;5061413;28;20016;-80
2020/12/06 02:17:38;;;;;;;31.42;23.05;;;;;;;;;;5061202;28;20044;-79
2020/12/06 02:20:23;;;;;;;29.83;20.55;;;;;;;;;;5058758;28;20453;-80
2020/12/06 02:23:08;;;;;;;30.30;22.02;;;;;;;;;;5056244;28;20025;-82
2020/12/06 02:25:54;;;;;;;35.38;24.45;;;;;;;;;;5068738;28;20470;-82
2020/12/06 02:28:39;;;;;;;33.45;23.35;;;;;;;;;;5057205;28;20032;-80
2020/12/06 02:31:25;;;;;;;33.35;22.35;;;;;;;;;;5062899;28;20017;-80
2020/12/06 02:34:11;;;;;;;28.13;21.55;;;;;;;;;;5048865;28;20041;-81
2020/12/06 02:36:57;;;;;;;28.83;19.55;;;;;;;;;;5058841;28;20120;-81
2020/12/06 02:39:42;;;;;;;32.67;22.23;;;;;;;;;;5055153;28;20029;-81
2020/12/06 02:42:28;;;;;;;23.85;17.48;;;;;;;;;;5053369;28;20031;-81
2020/12/06 02:45:14;;;;;;;31.42;21.08;;;;;;;;;;5054787;28;20053;-81
2020/12/06 02:47:59;;;;;;;35.28;22.80;;;;;;;;;;5054131;28;20033;-81
2020/12/06 02:50:45;;;;;;;30.95;20.40;;;;;;;;;;5053794;28;20073;-81
2020/12/06 02:53:30;;;;;;;35.80;21.52;;;;;;;;;;5053403;28;20025;-80
2020/12/06 02:56:16;;;;;;;33.35;22.63;;;;;;;;;;5056220;28;20021;-80
2020/12/06 02:59:01;;;;;;;40.60;27.27;;;;;;;;;;5058948;28;20043;-80
2020/12/06 03:01:47;;;;;;;36.00;24.55;;;;;;;;;;5054653;28;20051;-80
2020/12/06 03:04:32;;;;;;;41.55;26.02;;;;;;;;;;5059431;28;20036;-80
2020/12/06 03:07:18;;;;;;;32.65;20.55;;;;;;;;;;5056069;28;20116;-81
2020/12/06 03:10:06;;;;;;;38.70;24.73;;;;;;;;;;5053012;28;20135;-83
2020/12/06 03:12:51;;;;;;;29.90;20.58;;;;;;;;;;5057017;28;20415;-82
2020/12/06 03:15:36;;;;;;;30.05;20.95;;;;;;;;;;5051899;28;20401;-85
2020/12/06 03:18:22;;;;;;;31.17;21.05;;;;;;;;;;5055945;28;20037;-82
2020/12/06 03:21:07;;;;;;;34.17;24.00;;;;;;;;;;5053541;28;20065;-82
2020/12/06 03:23:52;;;;;;;42.33;26.40;;;;;;;;;;5057867;28;20063;-81
2020/12/06 03:26:37;;;;;;;34.17;23.85;;;;;;;;;;5061893;28;20020;-81
2020/12/06 03:29:23;;;;;;;32.55;23.13;;;;;;;;;;5051204;28;20063;-81
2020/12/06 03:32:08;;;;;;;36.50;24.17;;;;;;;;;;5052746;28;20115;-82
2020/12/06 03:34:53;;;;;;;38.50;25.42;;;;;;;;;;5042901;28;20116;-81
2020/12/06 03:37:38;;;;;;;39.65;26.13;;;;;;;;;;5040451;28;20033;-82
2020/12/06 03:40:24;;;;;;;41.53;27.48;;;;;;;;;;5039644;28;20475;-82
2020/12/06 03:43:09;;;;;;;49.38;31.00;;;;;;;;;;5041408;28;20070;-81
2020/12/06 03:45:55;;;;;;;37.58;24.73;;;;;;;;;;5038504;28;20025;-83
2020/12/06 03:48:40;;;;;;;43.72;26.85;;;;;;;;;;5037969;28;20341;-83
2020/12/06 03:51:25;;;;;;;40.08;25.85;;;;;;;;;;5041943;28;20025;-83
2020/12/06 03:54:11;;;;;;;36.50;23.88;;;;;;;;;;5043798;28;20604;-83
2020/12/06 03:56:56;;;;;;;34.28;23.20;;;;;;;;;;5044021;28;20036;-83
2020/12/06 03:59:41;;;;;;;42.00;26.27;;;;;;;;;;5045282;28;20035;-79
2020/12/06 04:02:27;;;;;;;39.78;25.40;;;;;;;;;;5048362;28;20051;-83
2020/12/06 04:05:12;;;;;;;49.05;30.42;;;;;;;;;;5039973;28;20027;-81
2020/12/06 04:07:58;;;;;;;47.45;29.17;;;;;;;;;;5044990;28;20525;-81
2020/12/06 04:10:43;;;;;;;38.33;23.85;;;;;;;;;;5044093;28;20021;-80
2020/12/06 04:13:29;;;;;;;42.40;26.80;;;;;;;;;;5033413;28;20371;-82
2020/12/06 04:16:14;;;;;;;52.03;29.65;;;;;;;;;;5042104;28;20112;-82
2020/12/06 04:18:59;;;;;;;57.97;31.80;;;;;;;;;;5043241;28;20021;-82
2020/12/06 04:21:44;;;;;;;52.72;30.45;;;;;;;;;;5047357;28;20135;-80
2020/12/06 04:24:30;;;;;;;54.88;32.70;;;;;;;;;;5045323;28;20140;-80
2020/12/06 04:27:15;;;;;;;56.60;31.33;;;;;;;;;;5041934;28;20365;-81
2020/12/06 04:30:00;;;;;;;51.85;30.40;;;;;;;;;;5044493;28;20043;-81
2020/12/06 04:32:46;;;;;;;57.75;32.03;;;;;;;;;;5046001;28;20151;-81
2020/12/06 04:35:34;;;;;;;70.53;35.45;;;;;;;;;;5067342;28;20040;-81
2020/12/06 04:38:20;;;;;;;68.40;34.72;;;;;;;;;;5064563;28;20197;-82
2020/12/06 04:41:05;;;;;;;64.78;34.38;;;;;;;;;;5060573;28;20412;-81
2020/12/06 04:43:51;;;;;;;60.40;33.15;;;;;;;;;;5062297;28;20027;-80
2020/12/06 04:46:37;;;;;;;67.82;35.25;;;;;;;;;;5064225;28;20031;-81
2020/12/06 04:49:44;;;;;;;51.22;29.80;;;;;;;;;;5059864;28;20055;-82
2020/12/06 04:52:33;;;;;;;54.63;31.02;;;;;;;;;;5083131;28;20031;-80
2020/12/06 04:55:20;;;;;;;63.08;36.72;;;;;;;;;;5069654;28;20024;-84
2020/12/06 04:58:05;;;;;;;47.03;28.50;;;;;;;;;;5061898;28;20042;-83
2020/12/06 05:00:51;;;;;;;51.45;30.90;;;;;;;;;;5063789;28;20020;-83
2020/12/06 05:03:38;;;;;;;56.00;31.67;;;;;;;;;;5062582;28;20012;-83
2020/12/06 05:06:24;;;;;;;55.15;31.58;;;;;;;;;;5065238;28;20032;-83
2020/12/06 05:09:11;;;;;;;50.90;31.52;;;;;;;;;;5062332;28;20024;-82
2020/12/06 05:11:56;;;;;;;57.78;34.35;;;;;;;;;;5061189;28;20051;-82
2020/12/06 05:14:42;;;;;;;62.42;34.53;;;;;;;;;;5066446;28;20028;-80
2020/12/06 05:17:27;;;;;;;88.60;41.88;;;;;;;;;;5055535;28;20039;-82
2020/12/06 05:20:13;;;;;;;83.25;37.47;;;;;;;;;;5067170;28;20020;-83
2020/12/06 05:22:58;;;;;;;52.25;29.70;;;;;;;;;;5065172;28;20043;-83
2020/12/06 05:25:43;;;;;;;70.65;37.17;;;;;;;;;;5059954;28;20370;-83
2020/12/06 05:28:32;;;;;;;62.65;34.75;;;;;;;;;;5062031;28;20052;-83
2020/12/06 05:31:17;;;;;;;73.65;36.38;;;;;;;;;;5058557;28;20027;-83
2020/12/06 05:34:03;;;;;;;60.85;33.70;;;;;;;;;;5056912;28;20040;-83
2020/12/06 05:36:48;;;;;;;64.78;34.33;;;;;;;;;;5060418;28;20021;-83
2020/12/06 05:39:33;;;;;;;59.38;31.27;;;;;;;;;;5062876;28;20052;-84
2020/12/06 05:42:19;;;;;;;62.47;32.70;;;;;;;;;;5053931;28;20113;-84
2020/12/06 05:45:04;;;;;;;57.60;31.85;;;;;;;;;;5049985;28;20108;-84
2020/12/06 05:47:51;;;;;;;59.72;33.65;;;;;;;;;;5054518;28;20024;-84
2020/12/06 05:50:37;;;;;;;50.95;30.60;;;;;;;;;;5058104;28;20040;-83
2020/12/06 05:53:23;;;;;;;65.43;34.50;;;;;;;;;;5059331;28;20021;-82
2020/12/06 05:56:11;;;;;;;45.97;27.35;;;;;;;;;;5051795;28;20467;-83
2020/12/06 05:58:57;;;;;;;42.97;26.33;;;;;;;;;;5056553;28;20264;-83
2020/12/06 06:01:42;;;;;;;43.70;27.02;;;;;;;;;;5053359;28;20025;-81
2020/12/06 06:04:28;;;;;;;43.17;27.15;;;;;;;;;;5044503;28;20028;-82
2020/12/06 06:07:17;;;;;;;39.15;25.23;;;;;;;;;;5059790;28;20024;-82
2020/12/06 06:10:04;;;;;;;51.70;30.42;;;;;;;;;;5057018;28;20033;-82
2020/12/06 06:12:56;;;;;;;55.22;31.52;;;;;;;;;;5054723;28;20032;-82
2020/12/06 06:15:41;;;;;;;52.22;30.92;;;;;;;;;;5057024;28;20025;-82
2020/12/06 06:18:27;;;;;;;45.35;27.67;;;;;;;;;;5058999;28;20017;-82
2020/12/06 06:21:13;;;;;;;45.55;28.70;;;;;;;;;;5039082;28;20365;-82
2020/12/06 06:24:04;;;;;;;55.58;32.08;;;;;;;;;;5060238;28;20133;-81
2020/12/06 06:26:51;;;;;;;67.47;34.85;;;;;;;;;;5054928;28;20094;-81
2020/12/06 06:29:37;;;;;;;56.42;31.15;;;;;;;;;;5057224;28;20410;-81
2020/12/06 06:32:22;;;;;;;60.17;33.97;;;;;;;;;;5048253;28;20048;-81
2020/12/06 06:35:08;;;;;;;60.85;32.00;;;;;;;;;;5028228;28;20043;-82
2020/12/06 06:37:56;;;;;;;74.18;35.95;;;;;;;;;;5041111;28;20103;-82
2020/12/06 06:40:44;;;;;;;54.65;31.80;;;;;;;;;;5045902;28;20047;-81
2020/12/06 06:43:32;;;;;;;58.33;33.92;;;;;;;;;;5041328;28;20059;-80
2020/12/06 06:46:21;;;;;;;57.40;32.65;;;;;;;;;;5045155;28;20059;-81
2020/12/06 06:49:11;;;;;;;53.38;31.02;;;;;;;;;;5038992;28;20021;-81
2020/12/06 06:51:56;;;;;;;58.28;31.50;;;;;;;;;;5037660;28;20024;-81
2020/12/06 06:54:45;;;;;;;53.63;30.23;;;;;;;;;;5044619;28;20378;-81
2020/12/06 06:57:31;;;;;;;55.05;31.45;;;;;;;;;;5040670;28;20470;-81
2020/12/06 07:00:16;;;;;;;60.92;33.10;;;;;;;;;;5039930;28;20489;-81
2020/12/06 07:03:01;;;;;;;51.08;31.48;;;;;;;;;;5036802;28;20024;-81
2020/12/06 07:05:47;;;;;;;52.20;29.42;;;;;;;;;;5039815;28;20029;-81
2020/12/06 07:08:33;;;;;;;56.22;31.30;;;;;;;;;;5045201;28;20494;-83
2020/12/06 07:11:22;;;;;;;65.35;32.05;;;;;;;;;;5045696;28;20032;-83
2020/12/06 07:14:08;;;;;;;62.38;31.90;;;;;;;;;;5041751;28;20025;-82
2020/12/06 07:16:58;;;;;;;61.30;31.73;;;;;;;;;;5042973;28;20024;-81
2020/12/06 07:19:47;;;;;;;62.17;31.48;;;;;;;;;;5044300;28;20028;-82
2020/12/06 07:22:35;;;;;;;65.03;31.87;;;;;;;;;;5039773;28;20039;-81
2020/12/06 07:25:21;;;;;;;63.20;31.77;;;;;;;;;;5038066;28;20055;-81
2020/12/06 07:28:06;;;;;;;53.97;29.85;;;;;;;;;;5040340;28;20013;-81
2020/12/06 07:30:51;;;;;;;68.43;32.75;;;;;;;;;;5039362;28;20043;-81
2020/12/06 07:33:37;;;;;;;57.67;30.52;;;;;;;;;;5047328;28;20044;-80
2020/12/06 07:36:22;;;;;;;63.22;30.20;;;;;;;;;;5063806;28;20476;-80
2020/12/06 07:39:17;;;;;;;51.03;28.38;;;;;;;;;;5064778;28;20032;-80
2020/12/06 07:42:02;;;;;;;57.25;28.70;;;;;;;;;;5067454;28;20016;-80
2020/12/06 07:44:48;;;;;;;83.45;42.90;;;;;;;;;;5064953;28;20039;-81
2020/12/06 07:47:34;;;;;;;79.07;35.33;;;;;;;;;;5060116;28;20058;-82
2020/12/06 07:50:20;;;;;;;60.45;29.48;;;;;;;;;;5064457;28;20059;-81
2020/12/06 07:53:06;;;;;;;67.78;29.75;;;;;;;;;;5067580;28;20028;-81
2020/12/06 07:56:03;;;;;;;52.85;28.05;;;;;;;;;;5065118;28;20031;-81
2020/12/06 07:58:54;;;;;;;47.95;23.75;;;;;;;;;;5061495;28;20031;-80
2020/12/06 08:01:41;;;;;;;62.50;29.38;;;;;;;;;;5062364;28;20237;-80
2020/12/06 08:04:28;;;;;;;61.38;28.88;;;;;;;;;;5048624;28;20074;-81
2020/12/06 08:07:17;;;;;;;79.07;33.50;;;;;;;;;;5061400;28;20024;-81
2020/12/06 08:10:02;;;;;;;55.10;28.42;;;;;;;;;;5064314;28;20019;-80
2020/12/06 08:12:50;;;;;;;55.08;25.98;;;;;;;;;;5064766;28;20032;-81
2020/12/06 08:15:35;;;;;;;62.53;29.50;;;;;;;;;;5064813;28;20497;-83
2020/12/06 08:18:22;;;;;;;67.82;29.73;;;;;;;;;;5060634;28;20543;-83
2020/12/06 08:21:08;;;;;;;66.82;27.60;;;;;;;;;;5071588;28;20219;-82
2020/12/06 08:23:53;;;;;;;78.53;34.30;;;;;;;;;;5068576;28;20052;-81
2020/12/06 08:26:38;;;;;;;108.05;54.05;;;;;;;;;;5051433;28;20115;-81
2020/12/06 08:29:38;;;;;;;82.45;35.45;;;;;;;;;;5065184;28;20091;-81
2020/12/06 08:32:25;;;;;;;61.27;26.40;;;;;;;;;;5059173;28;20056;-82
2020/12/06 08:35:10;;;;;;;54.25;25.33;;;;;;;;;;5028596;28;20479;-82
2020/12/06 08:37:56;;;;;;;56.95;24.77;;;;;;;;;;5040492;28;20059;-82
2020/12/06 08:40:59;;;;;;;46.97;21.65;;;;;;;;;;5038727;28;20036;-83
2020/12/06 08:44:01;;;;;;;45.78;23.35;;;;;;;;;;5046191;28;20032;-82
2020/12/06 08:46:50;;;;;;;62.97;26.23;;;;;;;;;;5042188;28;20043;-81
2020/12/06 08:49:36;;;;;;;54.53;26.07;;;;;;;;;;5039695;28;20376;-81
2020/12/06 08:52:21;;;;;;;64.43;26.92;;;;;;;;;;5040215;28;20028;-81
2020/12/06 08:55:26;;;;;;;55.13;23.58;;;;;;;;;;5045766;28;20024;-81
2020/12/06 08:58:26;;;;;;;41.95;21.20;;;;;;;;;;5036167;28;20115;-81
2020/12/06 09:01:11;;;;;;;;;;;;;;;;;;5048535;28;20028;-81
2020/12/06 09:03:57;;;;;;;37.83;18.88;;;;;;;;;;5044403;28;19908;-81
2020/12/06 09:06:42;;;;;;;47.72;21.90;;;;;;;;;;5044231;28;20013;-81
2020/12/06 09:09:28;;;;;;;46.50;22.38;;;;;;;;;;5055477;28;20060;-81
2020/12/06 09:12:13;;;;;;;36.47;19.52;;;;;;;;;;5046343;28;20040;-81
2020/12/06 09:14:59;;;;;;;37.28;19.10;;;;;;;;;;5041316;28;20035;-81
2020/12/06 09:17:45;;;;;;;40.00;19.42;;;;;;;;;;5034737;28;20027;-83
2020/12/06 09:20:30;;;;;;;36.47;18.27;;;;;;;;;;5028567;28;20035;-82
2020/12/06 09:23:16;;;;;;;39.15;21.00;;;;;;;;;;5033995;28;20024;-81
2020/12/06 09:26:01;;;;;;;47.80;27.10;;;;;;;;;;5034625;28;20117;-83
2020/12/06 09:28:46;;;;;;;72.55;46.58;;;;;;;;;;5034249;28;20127;-83
2020/12/06 09:31:31;;;;;;;27.73;16.83;;;;;;;;;;5039073;28;20032;-83
2020/12/06 09:34:17;;;;;;;31.75;17.10;;;;;;;;;;5059627;28;20044;-84
2020/12/06 09:37:02;;;;;;;28.17;16.50;;;;;;;;;;5060230;28;20440;-82
2020/12/06 09:39:48;;;;;;;26.40;14.43;;;;;;;;;;5065269;28;20081;-83
2020/12/06 09:42:33;;;;;;;27.92;15.40;;;;;;;;;;5057786;28;20028;-84
2020/12/06 09:45:18;;;;;;;22.17;13.88;;;;;;;;;;5048065;28;20021;-82
2020/12/06 09:48:03;;;;;;;21.20;12.75;;;;;;;;;;5059221;28;20035;-78
2020/12/06 09:50:49;;;;;;;24.88;14.13;;;;;;;;;;5059396;28;20024;-76
2020/12/06 09:53:34;;;;;;;24.27;13.55;;;;;;;;;;5057287;28;20020;-76
2020/12/06 09:56:25;;;;;;;22.00;12.30;;;;;;;;;;5054620;28;20059;-75
2020/12/06 09:59:10;;;;;;;23.10;13.77;;;;;;;;;;5059339;28;20394;-76
2020/12/06 10:01:55;;;;;;;21.08;12.32;;;;;;;;;;5058128;28;20493;-78
2020/12/06 10:04:40;;;;;;;30.63;19.38;;;;;;;;;;5058289;28;20384;-78
2020/12/06 10:07:26;;;;;;;34.60;20.80;;;;;;;;;;5062412;28;20482;-78
2020/12/06 10:10:11;;;;;;;22.10;13.18;;;;;;;;;;5057395;28;20028;-83
2020/12/06 10:12:56;;;;;;;23.73;13.82;;;;;;;;;;5060719;28;20032;-81
2020/12/06 10:15:42;;;;;;;22.67;13.20;;;;;;;;;;5045545;28;20024;-81
2020/12/06 10:18:27;;;;;;;19.65;11.35;;;;;;;;;;5063222;28;20495;-81
2020/12/06 10:21:13;;;;;;;22.48;12.45;;;;;;;;;;5060528;28;20111;-82
2020/12/06 10:23:58;;;;;;;17.88;10.75;;;;;;;;;;5063400;28;20029;-81
2020/12/06 10:26:44;;;;;;;18.65;11.40;;;;;;;;;;5065045;28;20095;-81
2020/12/06 10:29:29;;;;;;;17.42;10.52;;;;;;;;;;5060269;28;20050;-81
2020/12/06 10:32:14;;;;;;;19.52;11.73;;;;;;;;;;5054424;28;20032;-81
2020/12/06 10:34:59;;;;;;;18.90;11.85;;;;;;;;;;5043827;28;20411;-82
2020/12/06 10:37:45;;;;;;;16.40;9.95;;;;;;;;;;5036472;28;20029;-81
2020/12/06 10:40:31;;;;;;;21.80;12.05;;;;;;;;;;5043289;28;20128;-82
2020/12/06 10:43:16;;;;;;;16.50;8.90;;;;;;;;;;5037105;28;20418;-82
2020/12/06 10:46:01;;;;;;;19.95;11.55;;;;;;;;;;5036678;28;20032;-81
2020/12/06 10:48:47;;;;;;;20.95;11.63;;;;;;;;;;5046562;28;20028;-81
2020/12/06 10:51:32;;;;;;;20.27;11.95;;;;;;;;;;5040894;28;20040;-81
2020/12/06 10:54:17;;;;;;;19.02;11.68;;;;;;;;;;5047782;28;20029;-82
2020/12/06 10:57:03;;;;;;;19.92;10.20;;;;;;;;;;5045510;28;20059;-82
2020/12/06 10:59:49;;;;;;;16.75;9.88;;;;;;;;;;5043862;28;20025;-82
2020/12/06 11:02:34;;;;;;;16.45;10.00;;;;;;;;;;5049162;28;20017;-82
2020/12/06 11:05:20;;;;;;;32.08;20.13;;;;;;;;;;5041474;28;20031;-81
2020/12/06 11:08:05;;;;;;;68.28;46.65;;;;;;;;;;5043739;28;20115;-83
2020/12/06 11:10:51;;;;;;;18.77;11.00;;;;;;;;;;5045715;28;20051;-81
2020/12/06 11:13:36;;;;;;;19.85;10.75;;;;;;;;;;5044812;28;20021;-82
2020/12/06 11:16:22;;;;;;;14.88;9.35;;;;;;;;;;5046543;28;20429;-81
2020/12/06 11:19:07;;;;;;;18.63;11.48;;;;;;;;;;5042229;28;20122;-82
2020/12/06 11:21:52;;;;;;;17.58;9.88;;;;;;;;;;5050655;28;20524;-81
2020/12/06 11:24:38;;;;;;;16.80;9.70;;;;;;;;;;5046956;28;20390;-82
2020/12/06 11:27:23;;;;;;;14.77;8.40;;;;;;;;;;5045217;28;20062;-81
2020/12/06 11:30:08;;;;;;;15.57;9.02;;;;;;;;;;5030221;28;20033;-81
2020/12/06 11:32:53;;;;;;;16.10;9.57;;;;;;;;;;5051485;28;20125;-81
2020/12/06 11:35:39;;;;;;;15.27;9.25;;;;;;;;;;5062732;28;20020;-81
2020/12/06 11:38:24;;;;;;;11.82;7.53;;;;;;;;;;5064173;28;20630;-80
2020/12/06 11:41:09;;;;;;;16.70;8.32;;;;;;;;;;5068525;28;20486;-81
2020/12/06 11:43:55;;;;;;;14.38;7.65;;;;;;;;;;5062706;28;20463;-81
2020/12/06 11:46:40;;;;;;;11.75;7.47;;;;;;;;;;5067552;28;20028;-81
2020/12/06 11:49:25;;;;;;;12.15;7.32;;;;;;;;;;5067666;28;20032;-82
2020/12/06 11:52:10;;;;;;;11.35;7.43;;;;;;;;;;5061725;28;20020;-81
2020/12/06 11:54:56;;;;;;;12.23;6.65;;;;;;;;;;5064576;28;20028;-81
2020/12/06 11:57:44;;;;;;;9.45;6.53;;;;;;;;;;5061706;28;20085;-81
2020/12/06 12:00:29;;;;;;;12.88;6.55;;;;;;;;;;5064262;28;20390;-81
2020/12/06 12:03:15;;;;;;;11.93;7.05;;;;;;;;;;5061141;28;20417;-82
2020/12/06 12:06:00;;;;;;;10.95;6.10;;;;;;;;;;5050259;28;20523;-81
2020/12/06 12:08:46;;;;;;;9.55;6.30;;;;;;;;;;5065452;28;20043;-82
2020/12/06 12:11:31;;;;;;;52.97;33.15;;;;;;;;;;5064660;28;20114;-81
2020/12/06 12:14:17;;;;;;;23.60;15.57;;;;;;;;;;5061963;28;20075;-81
2020/12/06 12:17:02;;;;;;;11.10;7.43;;;;;;;;;;5060444;28;20057;-81
2020/12/06 12:19:47;;;;;;;11.52;6.72;;;;;;;;;;5060041;28;20032;-81
2020/12/06 12:22:32;;;;;;;10.07;5.78;;;;;;;;;;5066868;28;20024;-80
2020/12/06 12:25:18;;;;;;;9.35;5.60;;;;;;;;;;5063175;28;20012;-79
2020/12/06 12:28:03;;;;;;;8.98;5.00;;;;;;;;;;5060280;28;20151;-80
2020/12/06 12:30:48;;;;;;;6.90;5.07;;;;;;;;;;5059648;28;20024;-81
2020/12/06 12:33:33;;;;;;;9.90;5.20;;;;;;;;;;5053146;28;20095;-80
2020/12/06 12:36:19;;;;;;;9.20;5.63;;;;;;;;;;5053937;28;20143;-80
2020/12/06 12:39:04;;;;;;;8.00;4.88;;;;;;;;;;5060227;28;20021;-80
2020/12/06 12:41:50;;;;;;;55.70;39.72;;;;;;;;;;5063661;28;20020;-81
2020/12/06 12:44:35;;;;;;;13.82;9.27;;;;;;;;;;5054277;28;20013;-80
2020/12/06 12:47:20;;;;;;;11.50;5.25;;;;;;;;;;5047529;28;20120;-80
2020/12/06 12:50:06;;;;;;;6.93;4.70;;;;;;;;;;5051362;28;20044;-81
2020/12/06 12:52:51;;;;;;;9.00;4.45;;;;;;;;;;5052226;28;20446;-80
2020/12/06 12:55:37;;;;;;;6.45;4.53;;;;;;;;;;5059681;28;20551;-82
2020/12/06 12:58:22;;;;;;;6.95;4.60;;;;;;;;;;5052647;28;20021;-81
2020/12/06 13:01:07;;;;;;;6.15;4.72;;;;;;;;;;5059534;28;20107;-81
2020/12/06 13:03:53;;;;;;;7.22;4.63;;;;;;;;;;5056960;28;20045;-81
2020/12/06 13:06:38;;;;;;;9.27;4.45;;;;;;;;;;5055070;28;20017;-82
2020/12/06 13:09:23;;;;;;;5.75;3.72;;;;;;;;;;5057478;28;20058;-84
2020/12/06 13:12:09;;;;;;;8.73;5.80;;;;;;;;;;5054902;28;20077;-81
2020/12/06 13:14:54;;;;;;;20.08;14.20;;;;;;;;;;5059730;28;20471;-81
2020/12/06 13:17:39;;;;;;;6.80;4.47;;;;;;;;;;5049324;28;20044;-77
2020/12/06 13:20:24;;;;;;;6.47;3.97;;;;;;;;;;5048428;28;20029;-75
2020/12/06 13:23:09;;;;;;;6.75;4.10;;;;;;;;;;5046160;28;20013;-74
2020/12/06 13:25:55;;;;;;;7.53;3.90;;;;;;;;;;5051644;28;20364;-74
2020/12/06 13:28:40;;;;;;;6.88;3.75;;;;;;;;;;5054828;28;20399;-74
2020/12/06 13:31:25;;;;;;;7.75;4.50;;;;;;;;;;5056406;28;20029;-74
2020/12/06 13:34:10;;;;;;;5.35;3.97;;;;;;;;;;5059194;28;20053;-81
2020/12/06 13:36:55;;;;;;;13.45;8.77;;;;;;;;;;5051327;28;20115;-74
2020/12/06 13:39:41;;;;;;;11.20;5.80;;;;;;;;;;5044265;28;20024;-80
2020/12/06 13:42:26;;;;;;;6.80;3.78;;;;;;;;;;5066340;28;20040;-80
2020/12/06 13:45:12;;;;;;;4.97;3.25;;;;;;;;;;5061151;28;20023;-80
2020/12/06 13:47:57;;;;;;;6.07;3.47;;;;;;;;;;5052844;28;20031;-80
2020/12/06 13:50:43;;;;;;;5.43;3.40;;;;;;;;;;5052354;28;20024;-79
2020/12/06 13:53:28;;;;;;;6.38;4.40;;;;;;;;;;5055350;28;20021;-80
2020/12/06 13:56:14;;;;;;;5.50;3.70;;;;;;;;;;5056823;28;20383;-81
2020/12/06 13:59:02;;;;;;;7.10;3.72;;;;;;;;;;5050271;28;20465;-80
2020/12/06 14:01:48;;;;;;;6.90;3.97;;;;;;;;;;5060176;28;20016;-80
2020/12/06 14:04:33;;;;;;;6.38;4.53;;;;;;;;;;5049706;28;20024;-81
2020/12/06 14:07:18;;;;;;;9.15;4.85;;;;;;;;;;5056787;28;20021;-80
2020/12/06 14:10:03;;;;;;;9.35;5.18;;;;;;;;;;5054788;28;20023;-81
2020/12/06 14:12:48;;;;;;;6.63;4.45;;;;;;;;;;5051429;28;20044;-80
2020/12/06 14:15:34;;;;;;;7.75;5.22;;;;;;;;;;5056491;28;20054;-75
2020/12/06 14:18:19;;;;;;;11.27;7.60;;;;;;;;;;5051887;28;20105;-73
2020/12/06 14:21:04;;;;;;;6.65;4.65;;;;;;;;;;5048603;28;20024;-80
2020/12/06 14:23:51;;;;;;;6.45;4.03;;;;;;;;;;5053208;28;20016;-81
2020/12/06 14:26:36;;;;;;;8.02;4.43;;;;;;;;;;5052330;28;21733;-82
2020/12/06 14:29:21;;;;;;;6.45;4.40;;;;;;;;;;5053891;28;20028;-81
2020/12/06 14:32:07;;;;;;;6.80;4.40;;;;;;;;;;5050336;28;20108;-80
2020/12/06 14:34:52;;;;;;;9.45;5.10;;;;;;;;;;5040131;28;20033;-81
2020/12/06 14:37:38;;;;;;;5.93;4.63;;;;;;;;;;5037931;28;20031;-82
2020/12/06 14:40:23;;;;;;;7.57;4.97;;;;;;;;;;5032289;28;20123;-82
2020/12/06 14:43:08;;;;;;;8.73;6.05;;;;;;;;;;5035752;28;20027;-81
2020/12/06 14:45:53;;;;;;;7.03;5.20;;;;;;;;;;5035274;28;20024;-81
2020/12/06 14:48:39;;;;;;;7.03;4.97;;;;;;;;;;5035995;28;20029;-81
2020/12/06 14:51:24;;;;;;;7.03;4.78;;;;;;;;;;5034040;28;20473;-82
2020/12/06 14:54:09;;;;;;;7.90;5.32;;;;;;;;;;5036094;28;20056;-82
2020/12/06 14:56:54;;;;;;;7.30;5.35;;;;;;;;;;5049490;28;20044;-81
2020/12/06 14:59:40;;;;;;;8.50;6.10;;;;;;;;;;5040911;28;20024;-82
2020/12/06 15:02:25;;;;;;;13.48;6.15;;;;;;;;;;5037827;28;20024;-76
2020/12/06 15:05:11;;;;;;;6.88;5.03;;;;;;;;;;5036581;28;20021;-75
2020/12/06 15:07:56;;;;;;;8.63;6.50;;;;;;;;;;5032521;28;20593;-74
2020/12/06 15:10:41;;;;;;;8.23;5.97;;;;;;;;;;5035471;28;20020;-74
2020/12/06 15:13:27;;;;;;;12.25;7.40;;;;;;;;;;5034000;28;20051;-80
2020/12/06 15:16:12;;;;;;;8.13;5.65;;;;;;;;;;5038362;28;20020;-81
2020/12/06 15:18:57;;;;;;;8.00;6.05;;;;;;;;;;5037658;28;20029;-81
2020/12/06 15:21:43;;;;;;;39.00;26.52;;;;;;;;;;5039799;28;20130;-80
2020/12/06 15:24:28;;;;;;;14.40;9.32;;;;;;;;;;5036527;28;20025;-80
2020/12/06 15:27:13;;;;;;;10.45;7.25;;;;;;;;;;5043484;28;20013;-80
2020/12/06 15:29:58;;;;;;;8.93;6.00;;;;;;;;;;5042705;28;20049;-79
2020/12/06 15:32:43;;;;;;;9.25;6.25;;;;;;;;;;5042425;28;20055;-80
2020/12/06 15:35:29;;;;;;;9.90;6.30;;;;;;;;;;5065686;28;20024;-80
2020/12/06 15:38:14;;;;;;;10.18;7.13;;;;;;;;;;5062672;28;20024;-80
2020/12/06 15:40:59;;;;;;;12.02;7.15;;;;;;;;;;5059781;28;20028;-80
2020/12/06 15:43:44;;;;;;;10.52;7.55;;;;;;;;;;5064083;28;20032;-80
2020/12/06 15:46:30;;;;;;;9.65;7.18;;;;;;;;;;5056449;28;20032;-80
2020/12/06 15:49:15;;;;;;;9.75;7.30;;;;;;;;;;5059809;28;20028;-80
2020/12/06 15:52:00;;;;;;;9.75;7.07;;;;;;;;;;5062328;28;20024;-76
2020/12/06 15:54:46;;;;;;;10.60;7.47;;;;;;;;;;5062551;28;20087;-75
2020/12/06 15:57:31;;;;;;;12.02;8.90;;;;;;;;;;5064350;28;20028;-74
2020/12/06 16:00:17;;;;;;;14.30;8.98;;;;;;;;;;5060559;28;20112;-75
2020/12/06 16:03:02;;;;;;;12.52;9.38;;;;;;;;;;5067675;28;20047;-76
2020/12/06 16:05:48;;;;;;;15.43;9.75;;;;;;;;;;5064213;28;20386;-78
2020/12/06 16:08:34;;;;;;;13.45;8.68;;;;;;;;;;5057942;28;20095;-79
2020/12/06 16:11:19;;;;;;;13.02;8.77;;;;;;;;;;5060919;28;20032;-79
2020/12/06 16:14:05;;;;;;;12.57;8.55;;;;;;;;;;5058249;28;20017;-79